Time;durP1;ratioP1;P1;durP2;ratioP2;P2;SDS_P1;SDS_P2;PMS_P1;PMS_P2;Temp;Humidity;BMP_temperature;BMP_pressure;BME280_temperature;BME280_humidity;BME280_pressure;Samples;Min_cycle;Max_cycle;Signal;HPM_P1;HPM_P2
2022/09/08 00:00:09;;;;;;;;;;;;;;;;;;6272004;22;19911;-69
2022/09/08 00:02:35;;;;;;;;;;;;;;;;;;6272181;22;19911;-70
2022/09/08 00:05:00;;;;;;;;;;;;;;;;;;6271257;22;19954;-71
2022/09/08 00:07:26;;;;;;;;;;;;;;;;;;6271945;22;19969;-70
2022/09/08 00:09:52;;;;;;;;;;;;;;;;;;6271675;22;19911;-70
2022/09/08 00:12:18;;;;;;;;;;;;;;;;;;6244505;22;20278;-70
2022/09/08 13:24:39;;;;;;;;;;;;;;;;;;6212053;23;20422;-70
2022/09/08 13:27:05;;;;;;;;;;;;;;;;;;6211634;23;19912;-70
2022/09/08 13:29:31;;;;;;;;;;;;;;;;;;6211996;23;20007;-70
2022/09/08 13:31:56;;;;;;;;;;;;;;;;;;6211556;23;20006;-71
2022/09/08 13:34:22;;;;;;;;;;;;;;;;;;6211832;23;19916;-70
2022/09/08 13:36:47;;;;;;;;;;;;;;;;;;6185202;23;19947;-70
2022/09/08 13:39:13;;;;;;;;;;;;;;;;;;6211949;23;19916;-71
2022/09/08 13:41:39;;;;;;;;;;;;;;;;;;6211194;23;20367;-69
2022/09/08 13:44:04;;;;;;;;;;;;;;;;;;6184831;23;20019;-69
2022/09/08 13:46:30;;;;;;;;;;;;;;;;;;6210242;23;20131;-70
2022/09/08 13:48:55;;;;;;;;;;;;;;;;;;6211499;23;20353;-72
2022/09/08 13:51:21;;;;;;;;;;;;;;;;;;6211606;23;19995;-70
2022/09/08 13:53:47;;;;;;;;;;;;;;;;;;6211771;23;19952;-71
2022/09/08 13:56:13;;;;;;;;;;;;;;;;;;6210677;23;20319;-70
2022/09/08 13:58:38;;;;;;;;;;;;;;;;;;6211324;23;20065;-70
2022/09/08 14:01:04;;;;;;;;;;;;;;;;;;6211288;23;19912;-70
2022/09/08 14:03:30;;;;;;;;;;;;;;;;;;6211677;23;20549;-70
2022/09/08 14:05:55;;;;;;;;;;;;;;;;;;6211460;23;19947;-71
2022/09/08 14:08:21;;;;;;;;;;;;;;;;;;6211435;23;19934;-70
2022/09/08 14:10:46;;;;;;;;;;;;;;;;;;6211387;23;19916;-71
2022/09/08 14:13:13;;;;;;;;;;;;;;;;;;6211219;23;19912;-72
2022/09/08 14:15:39;;;;;;;;;;;;;;;;;;6185260;23;19912;-70
2022/09/08 14:18:04;;;;;;;;;;;;;;;;;;6211199;23;20301;-70
2022/09/08 14:20:30;;;;;;;;;;;;;;;;;;6211457;23;19911;-68
2022/09/08 14:22:56;;;;;;;;;;;;;;;;;;6218148;23;19920;-70
2022/09/08 14:25:21;;;;;;;;;;;;;;;;;;6241522;23;19911;-70
2022/09/08 14:27:47;;;;;;;;;;;;;;;;;;6241991;23;20412;-71
2022/09/08 14:30:14;;;;;;;;;;;;;;;;;;6240894;23;19935;-70
2022/09/08 14:32:40;;;;;;;;;;;;;;;;;;6231554;23;19911;-70
2022/09/08 14:35:06;;;;;;;;;;;;;;;;;;6215353;23;19911;-71
2022/09/08 14:37:31;;;;;;;;;;;;;;;;;;6241439;23;19927;-71
2022/09/08 14:39:57;;;;;;;;;;;;;;;;;;6241094;23;19915;-70
2022/09/08 14:42:22;;;;;;;;;;;;;;;;;;6241447;23;20407;-71
2022/09/08 14:44:48;;;;;;;;;;;;;;;;;;6241533;23;19981;-70
2022/09/08 14:47:14;;;;;;;;;;;;;;;;;;6241235;23;19974;-70
2022/09/08 14:49:39;;;;;;;;;;;;;;;;;;6241856;23;19990;-70
2022/09/08 14:52:06;;;;;;;;;;;;;;;;;;6242442;23;19911;-70
2022/09/08 14:54:31;;;;;;;;;;;;;;;;;;6242910;23;19912;-70
2022/09/08 14:56:57;;;;;;;;;;;;;;;;;;6241862;23;19982;-71
2022/09/08 14:59:23;;;;;;;;;;;;;;;;;;6239097;22;19919;-70
2022/09/08 15:01:49;;;;;;;;;;;;;;;;;;6239882;23;20285;-70
2022/09/08 15:04:15;;;;;;;;;;;;;;;;;;6240295;23;19965;-70
2022/09/08 15:06:40;;;;;;;;;;;;;;;;;;6240958;23;19934;-70
2022/09/08 15:09:06;;;;;;;;;;;;;;;;;;6241279;23;19954;-70
2022/09/08 15:11:32;;;;;;;;;;;;;;;;;;6239923;23;20002;-70
2022/09/08 15:13:57;;;;;;;;;;;;;;;;;;6239415;23;19921;-70
2022/09/08 15:16:23;;;;;;;;;;;;;;;;;;6240919;23;19922;-70
2022/09/08 15:18:51;;;;;;;;;;;;;;;;;;6241315;23;20311;-70
2022/09/08 15:21:17;;;;;;;;;;;;;;;;;;6240221;23;20244;-70
2022/09/08 15:23:43;;;;;;;;;;;;;;;;;;6238742;23;19966;-71
2022/09/08 15:26:09;;;;;;;;;;;;;;;;;;6237450;23;19912;-72
2022/09/08 15:28:35;;;;;;;;;;;;;;;;;;6240228;23;19911;-68
2022/09/08 15:31:01;;;;;;;;;;;;;;;;;;6240438;23;19973;-70
2022/09/08 15:33:26;;;;;;;;;;;;;;;;;;6265111;22;19912;-71
2022/09/08 15:35:54;;;;;;;;;;;;;;;;;;6241709;23;19911;-71
2022/09/08 15:38:20;;;;;;;;;;;;;;;;;;6265330;22;19912;-72
2022/09/08 15:40:46;;;;;;;;;;;;;;;;;;6240594;23;19966;-71
2022/09/08 15:43:14;;;;;;;;;;;;;;;;;;6264901;22;19943;-71
2022/09/08 15:45:41;;;;;;;;;;;;;;;;;;6238991;23;20002;-71
2022/09/08 15:48:06;;;;;;;;;;;;;;;;;;6238875;23;20396;-71
2022/09/08 15:50:33;;;;;;;;;;;;;;;;;;6241487;23;20020;-71
2022/09/08 15:52:59;;;;;;;;;;;;;;;;;;6240410;23;19934;-71
2022/09/08 15:55:25;;;;;;;;;;;;;;;;;;6271129;22;20352;-71
2022/09/08 15:57:53;;;;;;;;;;;;;;;;;;6272545;22;20298;-71
2022/09/08 16:00:20;;;;;;;;;;;;;;;;;;6271341;22;19931;-71
2022/09/08 16:02:46;;;;;;;;;;;;;;;;;;6272761;22;19911;-71
2022/09/08 16:05:12;;;;;;;;;;;;;;;;;;6272409;22;19911;-71
2022/09/08 16:07:38;;;;;;;;;;;;;;;;;;6267078;22;19964;-70
2022/09/08 16:10:03;;;;;;;;;;;;;;;;;;6239835;22;19993;-70
2022/09/08 16:12:30;;;;;;;;;;;;;;;;;;6269242;22;19911;-71
2022/09/08 16:14:56;;;;;;;;;;;;;;;;;;6269038;22;19911;-71
2022/09/08 16:17:21;;;;;;;;;;;;;;;;;;6271962;22;19946;-71
2022/09/08 16:19:47;;;;;;;;;;;;;;;;;;6272691;22;19961;-70
2022/09/08 16:22:16;;;;;;;;;;;;;;;;;;6271503;22;19911;-71
2022/09/08 16:24:44;;;;;;;;;;;;;;;;;;6270899;22;19919;-71
2022/09/08 16:27:12;;;;;;;;;;;;;;;;;;6271980;22;20344;-71
2022/09/08 16:29:38;;;;;;;;;;;;;;;;;;6272519;22;19970;-71
2022/09/08 16:32:04;;;;;;;;;;;;;;;;;;6272080;22;19933;-71
2022/09/08 16:34:30;;;;;;;;;;;;;;;;;;6269529;22;19911;-71
2022/09/08 16:36:55;;;;;;;;;;;;;;;;;;6268861;22;19925;-71
2022/09/08 16:39:21;;;;;;;;;;;;;;;;;;6270068;22;20426;-71
2022/09/08 16:41:47;;;;;;;;;;;;;;;;;;6268431;22;19938;-71
2022/09/08 16:44:14;;;;;;;;;;;;;;;;;;6241466;22;19918;-71
2022/09/08 16:46:40;;;;;;;;;;;;;;;;;;6268456;22;19934;-71
2022/09/08 16:49:06;;;;;;;;;;;;;;;;;;6268576;22;19911;-71
2022/09/08 16:51:31;;;;;;;;;;;;;;;;;;6271554;22;19908;-71
2022/09/08 16:53:57;;;;;;;;;;;;;;;;;;6271466;22;19921;-72
2022/09/08 16:56:22;;;;;;;;;;;;;;;;;;6271323;22;19923;-72
2022/09/08 16:58:48;;;;;;;;;;;;;;;;;;6271525;22;19938;-71
2022/09/08 17:01:14;;;;;;;;;;;;;;;;;;6269170;22;19962;-71
2022/09/08 17:03:39;;;;;;;;;;;;;;;;;;6271107;22;19997;-71
2022/09/08 17:06:05;;;;;;;;;;;;;;;;;;6244542;22;19959;-71
2022/09/08 17:08:30;;;;;;;;;;;;;;;;;;6271231;22;20394;-71
2022/09/08 17:10:56;;;;;;;;;;;;;;;;;;6271359;22;19918;-72
2022/09/08 17:13:25;;;;;;;;;;;;;;;;;;6271076;22;20524;-72
2022/09/08 17:15:51;;;;;;;;;;;;;;;;;;6270324;22;19915;-71
2022/09/08 17:18:17;;;;;;;;;;;;;;;;;;6270160;22;19940;-72
2022/09/08 17:20:42;;;;;;;;;;;;;;;;;;6271123;22;19998;-72
2022/09/08 17:23:10;;;;;;;;;;;;;;;;;;6243851;22;20328;-73
2022/09/08 17:25:39;;;;;;;;;;;;;;;;;;6244548;22;19911;-73
2022/09/08 17:28:04;;;;;;;;;;;;;;;;;;6269533;22;19965;-72
2022/09/08 17:30:30;;;;;;;;;;;;;;;;;;6267127;22;19915;-71
2022/09/08 17:32:56;;;;;;;;;;;;;;;;;;6269472;22;19911;-72
2022/09/08 17:35:22;;;;;;;;;;;;;;;;;;6242639;22;19911;-71
2022/09/08 17:37:48;;;;;;;;;;;;;;;;;;6268794;22;20275;-72
2022/09/08 17:40:13;;;;;;;;;;;;;;;;;;6268252;22;19968;-71
2022/09/08 17:42:39;;;;;;;;;;;;;;;;;;6242584;22;19918;-71
2022/09/08 17:45:05;;;;;;;;;;;;;;;;;;6269638;22;19911;-70
2022/09/08 17:47:30;;;;;;;;;;;;;;;;;;6269327;22;20291;-72
2022/09/08 17:49:56;;;;;;;;;;;;;;;;;;6269652;22;20259;-70
2022/09/08 17:52:22;;;;;;;;;;;;;;;;;;6269030;22;20002;-70
2022/09/08 17:54:47;;;;;;;;;;;;;;;;;;6243540;22;19957;-70
2022/09/08 17:57:13;;;;;;;;;;;;;;;;;;6271098;22;19926;-70
2022/09/08 17:59:39;;;;;;;;;;;;;;;;;;6271467;22;19912;-70
2022/09/08 18:02:04;;;;;;;;;;;;;;;;;;6271210;22;19919;-70
2022/09/08 18:04:30;;;;;;;;;;;;;;;;;;6268987;22;20255;-70
2022/09/08 18:06:55;;;;;;;;;;;;;;;;;;6270337;22;19911;-70
2022/09/08 18:09:21;;;;;;;;;;;;;;;;;;6272335;22;19990;-70
2022/09/08 18:11:46;;;;;;;;;;;;;;;;;;6272452;22;19997;-70
2022/09/08 18:14:12;;;;;;;;;;;;;;;;;;6269704;22;19911;-72
2022/09/08 18:16:40;;;;;;;;;;;;;;;;;;6271192;22;19923;-71
2022/09/08 18:19:05;;;;;;;;;;;;;;;;;;6271234;22;19919;-71
2022/09/08 18:21:32;;;;;;;;;;;;;;;;;;6271720;22;20419;-71
2022/09/08 18:23:57;;;;;;;;;;;;;;;;;;6238109;23;20018;-71
2022/09/08 18:26:23;;;;;;;;;;;;;;;;;;6240108;23;19998;-71
2022/09/08 18:28:49;;;;;;;;;;;;;;;;;;6239521;23;19923;-71
2022/09/08 18:31:14;;;;;;;;;;;;;;;;;;6239644;23;20072;-71
2022/09/08 18:33:40;;;;;;;;;;;;;;;;;;6239982;23;19974;-71
2022/09/08 18:36:06;;;;;;;;;;;;;;;;;;6264357;22;19919;-69
2022/09/08 18:38:31;;;;;;;;;;;;;;;;;;6240123;23;19912;-70
2022/09/08 18:40:57;;;;;;;;;;;;;;;;;;6239144;23;19916;-69
2022/09/08 18:43:23;;;;;;;;;;;;;;;;;;6240257;23;19938;-72
2022/09/08 18:45:48;;;;;;;;;;;;;;;;;;6240056;23;19966;-70
2022/09/08 18:48:14;;;;;;;;;;;;;;;;;;6240401;23;19938;-69
2022/09/08 18:50:39;;;;;;;;;;;;;;;;;;6240396;23;19971;-70
2022/09/08 18:53:05;;;;;;;;;;;;;;;;;;6240033;23;19911;-71
2022/09/08 18:55:31;;;;;;;;;;;;;;;;;;6240758;23;20308;-71
2022/09/08 18:57:57;;;;;;;;;;;;;;;;;;6213234;23;19916;-72
2022/09/08 19:00:23;;;;;;;;;;;;;;;;;;6240670;22;20348;-71
2022/09/08 19:02:49;;;;;;;;;;;;;;;;;;6239532;23;19912;-71
2022/09/08 19:05:15;;;;;;;;;;;;;;;;;;6236730;23;20265;-71
2022/09/08 19:07:40;;;;;;;;;;;;;;;;;;6239902;23;19912;-72
2022/09/08 19:10:06;;;;;;;;;;;;;;;;;;6235347;23;19983;-71
2022/09/08 19:12:32;;;;;;;;;;;;;;;;;;6239715;23;19907;-71
2022/09/08 19:14:58;;;;;;;;;;;;;;;;;;6238640;23;19916;-71
2022/09/08 19:17:24;;;;;;;;;;;;;;;;;;6239907;23;19920;-71
2022/09/08 19:19:49;;;;;;;;;;;;;;;;;;6235054;23;19919;-70
2022/09/08 19:22:15;;;;;;;;;;;;;;;;;;6236220;23;19943;-71
2022/09/08 19:24:40;;;;;;;;;;;;;;;;;;6241009;23;19966;-71
2022/09/08 19:27:06;;;;;;;;;;;;;;;;;;6239542;23;19912;-70
2022/09/08 19:29:32;;;;;;;;;;;;;;;;;;6241190;23;19918;-70
2022/09/08 19:31:58;;;;;;;;;;;;;;;;;;6212658;23;19981;-71
2022/09/08 19:34:24;;;;;;;;;;;;;;;;;;6239663;23;20419;-70
2022/09/08 19:36:50;;;;;;;;;;;;;;;;;;6239632;23;20009;-70
2022/09/08 19:39:16;;;;;;;;;;;;;;;;;;6235697;23;19947;-71
2022/09/08 19:41:41;;;;;;;;;;;;;;;;;;6239869;23;20286;-71
2022/09/08 19:44:07;;;;;;;;;;;;;;;;;;6237728;23;19947;-71
2022/09/08 19:46:32;;;;;;;;;;;;;;;;;;6239852;23;19939;-71
2022/09/08 19:48:59;;;;;;;;;;;;;;;;;;6239347;23;20351;-71
2022/09/08 19:51:25;;;;;;;;;;;;;;;;;;6239529;23;19912;-70
2022/09/08 19:53:51;;;;;;;;;;;;;;;;;;6239383;23;20360;-70
2022/09/08 19:56:16;;;;;;;;;;;;;;;;;;6240349;23;19920;-70
2022/09/08 19:58:43;;;;;;;;;;;;;;;;;;6240353;22;20307;-70
2022/09/08 20:01:08;;;;;;;;;;;;;;;;;;6240857;23;19912;-70
2022/09/08 20:03:34;;;;;;;;;;;;;;;;;;6242091;23;19983;-70
2022/09/08 20:05:59;;;;;;;;;;;;;;;;;;6263917;22;19912;-70
2022/09/08 20:08:26;;;;;;;;;;;;;;;;;;6239449;23;20396;-71
2022/09/08 20:10:52;;;;;;;;;;;;;;;;;;6239586;23;19981;-70
2022/09/08 20:13:18;;;;;;;;;;;;;;;;;;6236782;23;20297;-71
2022/09/08 20:15:44;;;;;;;;;;;;;;;;;;6238710;23;20423;-70
2022/09/08 20:18:09;;;;;;;;;;;;;;;;;;6239655;23;19950;-70
2022/09/08 20:20:38;;;;;;;;;;;;;;;;;;6237678;23;19919;-70
2022/09/08 20:23:29;;;;;;;;;;;;;;;;;;6238957;23;19995;-70
2022/09/08 20:25:56;;;;;;;;;;;;;;;;;;6239723;23;19985;-70
2022/09/08 20:28:49;;;;;;;;;;;;;;;;;;6237902;23;19965;-70
2022/09/08 20:31:43;;;;;;;;;;;;;;;;;;6238070;23;19918;-70
2022/09/08 20:34:09;;;;;;;;;;;;;;;;;;6237373;23;19912;-70
2022/09/08 20:36:35;;;;;;;;;;;;;;;;;;6239260;23;20209;-70
2022/09/08 20:39:00;;;;;;;;;;;;;;;;;;6212918;23;19955;-70
2022/09/08 20:41:37;;;;;;;;;;;;;;;;;;6213246;23;19936;-70
2022/09/08 20:44:03;;;;;;;;;;;;;;;;;;6211879;23;20263;-70
2022/09/08 20:46:30;;;;;;;;;;;;;;;;;;6237977;23;19970;-71
2022/09/08 20:48:56;;;;;;;;;;;;;;;;;;6239088;23;19990;-70
2022/09/08 20:51:21;;;;;;;;;;;;;;;;;;6239424;23;19989;-70
2022/09/08 20:53:47;;;;;;;;;;;;;;;;;;6237711;23;19911;-71
2022/09/08 20:56:13;;;;;;;;;;;;;;;;;;6262793;22;19923;-71
2022/09/08 20:58:39;;;;;;;;;;;;;;;;;;6238586;22;19912;-72
2022/09/08 21:01:09;;;;;;;;;;;;;;;;;;6239398;23;19911;-69
2022/09/08 21:03:39;;;;;;;;;;;;;;;;;;6188906;23;19911;-69
2022/09/08 21:06:06;;;;;;;;;;;;;;;;;;6212891;23;19911;-70
2022/09/08 21:08:35;;;;;;;;;;;;;;;;;;6236992;23;19912;-70
2022/09/08 21:11:04;;;;;;;;;;;;;;;;;;6239259;23;19947;-69
2022/09/08 21:13:57;;;;;;;;;;;;;;;;;;6240510;22;19919;-69
2022/09/08 21:16:29;;;;;;;;;;;;;;;;;;6214742;23;20399;-69
2022/09/08 21:18:56;;;;;;;;;;;;;;;;;;6213730;23;19947;-70
2022/09/08 21:21:21;;;;;;;;;;;;;;;;;;6190436;23;19912;-69
2022/09/08 21:23:47;;;;;;;;;;;;;;;;;;6240440;23;19924;-70
2022/09/08 21:26:13;;;;;;;;;;;;;;;;;;6241799;23;20260;-70
2022/09/08 21:28:39;;;;;;;;;;;;;;;;;;6215141;23;19950;-70
2022/09/08 21:31:05;;;;;;;;;;;;;;;;;;6243585;23;20264;-70
2022/09/08 21:33:30;;;;;;;;;;;;;;;;;;6242439;22;19947;-69
2022/09/08 21:35:56;;;;;;;;;;;;;;;;;;6242386;23;20018;-69
2022/09/08 21:38:23;;;;;;;;;;;;;;;;;;6241775;23;20334;-70
2022/09/08 21:40:49;;;;;;;;;;;;;;;;;;6190658;23;19935;-70
2022/09/08 21:43:15;;;;;;;;;;;;;;;;;;6240743;23;19912;-69
2022/09/08 21:45:41;;;;;;;;;;;;;;;;;;6190301;23;19918;-69
2022/09/08 21:48:07;;;;;;;;;;;;;;;;;;6242680;23;20348;-70
2022/09/08 21:50:32;;;;;;;;;;;;;;;;;;6242995;23;19919;-69
2022/09/08 21:52:58;;;;;;;;;;;;;;;;;;6266503;22;20088;-69
2022/09/08 21:55:24;;;;;;;;;;;;;;;;;;6215696;23;20315;-68
2022/09/08 21:57:50;;;;;;;;;;;;;;;;;;6240751;23;19926;-68
2022/09/08 22:00:16;;;;;;;;;;;;;;;;;;6240367;22;19912;-69
2022/09/08 22:02:41;;;;;;;;;;;;;;;;;;6266177;22;19908;-69
2022/09/08 22:05:17;;;;;;;;;;;;;;;;;;6215162;23;19918;-69
2022/09/08 22:07:42;;;;;;;;;;;;;;;;;;6190188;23;19990;-71
2022/09/08 22:10:09;;;;;;;;;;;;;;;;;;6190061;23;19975;-70
2022/09/08 22:12:36;;;;;;;;;;;;;;;;;;6240245;23;19974;-69
2022/09/08 22:15:02;;;;;;;;;;;;;;;;;;6165210;23;19912;-70
2022/09/08 22:17:29;;;;;;;;;;;;;;;;;;6191115;23;20352;-69
2022/09/08 22:19:55;;;;;;;;;;;;;;;;;;6190236;23;19918;-69
2022/09/08 22:22:21;;;;;;;;;;;;;;;;;;6216229;23;19946;-69
2022/09/08 22:24:46;;;;;;;;;;;;;;;;;;6242647;23;19943;-69
2022/09/08 22:27:12;;;;;;;;;;;;;;;;;;6216128;23;19911;-69
2022/09/08 22:29:38;;;;;;;;;;;;;;;;;;6241863;23;19920;-69
2022/09/08 22:32:03;;;;;;;;;;;;;;;;;;6216254;23;19911;-70
2022/09/08 22:34:29;;;;;;;;;;;;;;;;;;6243132;23;19935;-70
2022/09/08 22:36:55;;;;;;;;;;;;;;;;;;6166868;23;19919;-69
2022/09/08 22:39:28;;;;;;;;;;;;;;;;;;6194173;23;19911;-70
2022/09/08 22:41:55;;;;;;;;;;;;;;;;;;6243210;23;20352;-69
2022/09/08 22:44:24;;;;;;;;;;;;;;;;;;6216697;23;19911;-68
2022/09/08 22:46:50;;;;;;;;;;;;;;;;;;6191441;23;19911;-70
2022/09/08 22:49:17;;;;;;;;;;;;;;;;;;6191071;23;20353;-70
2022/09/08 22:51:42;;;;;;;;;;;;;;;;;;6165899;23;19911;-71
2022/09/08 22:54:12;;;;;;;;;;;;;;;;;;6215959;23;20344;-70
2022/09/08 22:56:45;;;;;;;;;;;;;;;;;;6241835;23;19920;-70
2022/09/08 22:59:12;;;;;;;;;;;;;;;;;;6240633;22;19934;-70
2022/09/08 23:01:40;;;;;;;;;;;;;;;;;;6188515;23;20011;-69
2022/09/08 23:04:11;;;;;;;;;;;;;;;;;;6238854;23;19919;-70
2022/09/08 23:06:36;;;;;;;;;;;;;;;;;;6243029;23;20183;-68
2022/09/08 23:09:02;;;;;;;;;;;;;;;;;;6242583;23;20218;-69
2022/09/08 23:11:27;;;;;;;;;;;;;;;;;;6242811;23;19955;-70
2022/09/08 23:13:53;;;;;;;;;;;;;;;;;;6242310;23;19939;-70
2022/09/08 23:16:18;;;;;;;;;;;;;;;;;;6241801;23;19920;-70
2022/09/08 23:18:45;;;;;;;;;;;;;;;;;;6241917;23;19918;-69
2022/09/08 23:21:11;;;;;;;;;;;;;;;;;;6242653;23;20019;-69
2022/09/08 23:23:38;;;;;;;;;;;;;;;;;;6214753;23;19923;-68
2022/09/08 23:26:04;;;;;;;;;;;;;;;;;;6242167;23;19994;-70
2022/09/08 23:28:30;;;;;;;;;;;;;;;;;;6243253;23;19942;-70
2022/09/08 23:30:56;;;;;;;;;;;;;;;;;;6266472;22;19911;-71
2022/09/08 23:33:21;;;;;;;;;;;;;;;;;;6241184;23;19958;-69
2022/09/08 23:35:47;;;;;;;;;;;;;;;;;;6242834;23;20356;-70
2022/09/08 23:38:13;;;;;;;;;;;;;;;;;;6241226;23;19965;-69
2022/09/08 23:40:39;;;;;;;;;;;;;;;;;;6242454;23;20263;-70
2022/09/08 23:43:05;;;;;;;;;;;;;;;;;;6242076;23;19912;-68
2022/09/08 23:45:31;;;;;;;;;;;;;;;;;;6243001;23;19915;-70
2022/09/08 23:47:56;;;;;;;;;;;;;;;;;;6243541;23;19911;-70
2022/09/08 23:50:22;;;;;;;;;;;;;;;;;;6242485;23;19912;-70
2022/09/08 23:52:47;;;;;;;;;;;;;;;;;;6242096;23;19969;-71
2022/09/08 23:55:13;;;;;;;;;;;;;;;;;;6241643;23;20042;-70
2022/09/08 23:57:39;;;;;;;;;;;;;;;;;;6241346;23;20256;-69
